sensor_id;sensor_type;location;lat;lon;timestamp;pressure;altitude;pressure_sealevel;temperature;humidity
43480;BME280;29067;35.492;-97.520;2023-03-19T00:00:27;98527.56;;;3.56;22.55
43480;BME280;29067;35.492;-97.520;2023-03-19T00:02:55;98540.50;;;3.11;22.44
43480;BME280;29067;35.492;-97.520;2023-03-19T00:05:23;98542.86;;;2.69;23.05
43480;BME280;29067;35.492;-97.520;2023-03-19T00:07:52;98542.66;;;2.50;23.01
43480;BME280;29067;35.492;-97.520;2023-03-19T00:10:20;98547.32;;;2.77;23.44
43480;BME280;29067;35.492;-97.520;2023-03-19T00:12:48;98547.56;;;2.34;23.40
43480;BME280;29067;35.492;-97.520;2023-03-19T00:15:16;98552.24;;;1.85;23.41
43480;BME280;29067;35.492;-97.520;2023-03-19T00:17:46;98559.92;;;1.63;23.63
43480;BME280;29067;35.492;-97.520;2023-03-19T00:20:14;98558.44;;;1.72;23.86
43480;BME280;29067;35.492;-97.520;2023-03-19T00:22:42;98561.32;;;0.74;23.88
43480;BME280;29067;35.492;-97.520;2023-03-19T00:25:11;98563.02;;;1.24;23.17
43480;BME280;29067;35.492;-97.520;2023-03-19T00:27:39;98566.16;;;0.89;23.38
43480;BME280;29067;35.492;-97.520;2023-03-19T00:30:08;98568.57;;;1.53;23.54
43480;BME280;29067;35.492;-97.520;2023-03-19T00:32:36;98576.40;;;0.98;23.14
43480;BME280;29067;35.492;-97.520;2023-03-19T00:35:05;98575.91;;;1.41;23.76
43480;BME280;29067;35.492;-97.520;2023-03-19T00:37:35;98578.78;;;0.74;23.23
43480;BME280;29067;35.492;-97.520;2023-03-19T00:40:04;98576.03;;;1.55;23.54
43480;BME280;29067;35.492;-97.520;2023-03-19T00:42:33;98581.87;;;2.33;23.33
43480;BME280;29067;35.492;-97.520;2023-03-19T00:45:01;98590.08;;;1.04;23.31
43480;BME280;29067;35.492;-97.520;2023-03-19T00:47:30;98590.17;;;1.30;23.15
43480;BME280;29067;35.492;-97.520;2023-03-19T00:49:58;98587.76;;;1.94;23.90
43480;BME280;29067;35.492;-97.520;2023-03-19T00:52:26;98593.92;;;1.24;22.62
43480;BME280;29067;35.492;-97.520;2023-03-19T00:54:54;98591.46;;;2.11;22.91
43480;BME280;29067;35.492;-97.520;2023-03-19T00:57:22;98591.86;;;2.09;23.02
43480;BME280;29067;35.492;-97.520;2023-03-19T00:59:50;98593.48;;;1.50;23.34
43480;BME280;29067;35.492;-97.520;2023-03-19T01:02:18;98600.04;;;1.11;22.95
43480;BME280;29067;35.492;-97.520;2023-03-19T01:04:47;98599.34;;;1.37;22.95
43480;BME280;29067;35.492;-97.520;2023-03-19T01:07:16;98605.11;;;1.21;23.38
43480;BME280;29067;35.492;-97.520;2023-03-19T01:09:44;98599.45;;;1.57;22.71
43480;BME280;29067;35.492;-97.520;2023-03-19T01:12:12;98609.67;;;1.31;23.02
43480;BME280;29067;35.492;-97.520;2023-03-19T01:14:40;98606.96;;;2.03;23.00
43480;BME280;29067;35.492;-97.520;2023-03-19T01:17:08;98606.85;;;2.37;22.34
43480;BME280;29067;35.492;-97.520;2023-03-19T01:19:36;98609.24;;;1.93;21.93
43480;BME280;29067;35.492;-97.520;2023-03-19T01:22:04;98613.04;;;1.09;22.62
43480;BME280;29067;35.492;-97.520;2023-03-19T01:24:32;98612.81;;;1.98;22.71
43480;BME280;29067;35.492;-97.520;2023-03-19T01:27:00;98621.32;;;1.81;22.76
43480;BME280;29067;35.492;-97.520;2023-03-19T01:29:28;98618.23;;;2.31;22.25
43480;BME280;29067;35.492;-97.520;2023-03-19T01:31:56;98626.81;;;1.40;22.58
43480;BME280;29067;35.492;-97.520;2023-03-19T01:34:24;98628.41;;;1.53;22.59
43480;BME280;29067;35.492;-97.520;2023-03-19T01:36:52;98628.25;;;1.90;22.62
43480;BME280;29067;35.492;-97.520;2023-03-19T01:39:20;98628.86;;;1.60;22.97
43480;BME280;29067;35.492;-97.520;2023-03-19T01:41:48;98627.63;;;1.28;22.27
43480;BME280;29067;35.492;-97.520;2023-03-19T01:44:25;98623.64;;;1.10;22.51
43480;BME280;29067;35.492;-97.520;2023-03-19T01:46:54;98619.29;;;0.90;21.99
43480;BME280;29067;35.492;-97.520;2023-03-19T01:49:25;98622.67;;;0.92;21.81
43480;BME280;29067;35.492;-97.520;2023-03-19T01:51:55;98628.97;;;0.53;21.80
43480;BME280;29067;35.492;-97.520;2023-03-19T01:54:25;98628.69;;;2.00;22.40
43480;BME280;29067;35.492;-97.520;2023-03-19T01:56:58;98638.32;;;1.13;22.19
43480;BME280;29067;35.492;-97.520;2023-03-19T01:59:29;98636.66;;;1.27;22.07
43480;BME280;29067;35.492;-97.520;2023-03-19T02:02:02;98642.58;;;0.62;21.96
43480;BME280;29067;35.492;-97.520;2023-03-19T02:04:33;98645.25;;;1.17;22.49
43480;BME280;29067;35.492;-97.520;2023-03-19T02:07:05;98647.68;;;0.18;22.42
43480;BME280;29067;35.492;-97.520;2023-03-19T02:09:35;98655.36;;;0.56;21.97
43480;BME280;29067;35.492;-97.520;2023-03-19T02:12:04;98661.57;;;0.23;22.09
43480;BME280;29067;35.492;-97.520;2023-03-19T02:14:33;98664.46;;;0.44;22.11
43480;BME280;29067;35.492;-97.520;2023-03-19T02:17:02;98669.31;;;0.56;21.75
43480;BME280;29067;35.492;-97.520;2023-03-19T02:19:37;98672.00;;;0.55;23.31
43480;BME280;29067;35.492;-97.520;2023-03-19T02:22:09;98679.31;;;-0.26;22.77
43480;BME280;29067;35.492;-97.520;2023-03-19T02:24:40;98676.92;;;-0.30;22.34
43480;BME280;29067;35.492;-97.520;2023-03-19T02:27:11;98684.62;;;0.04;22.66
43480;BME280;29067;35.492;-97.520;2023-03-19T02:29:39;98691.44;;;-1.29;22.47
43480;BME280;29067;35.492;-97.520;2023-03-19T02:32:07;98699.47;;;-1.29;22.78
43480;BME280;29067;35.492;-97.520;2023-03-19T02:34:38;98696.56;;;0.74;22.60
43480;BME280;29067;35.492;-97.520;2023-03-19T02:37:12;98700.50;;;-0.54;22.63
43480;BME280;29067;35.492;-97.520;2023-03-19T02:39:48;98701.16;;;-0.49;23.30
43480;BME280;29067;35.492;-97.520;2023-03-19T02:42:20;98706.72;;;-0.51;23.60
43480;BME280;29067;35.492;-97.520;2023-03-19T02:44:49;98707.90;;;-0.25;23.39
43480;BME280;29067;35.492;-97.520;2023-03-19T02:47:18;98709.49;;;0.12;23.25
43480;BME280;29067;35.492;-97.520;2023-03-19T02:49:46;98711.89;;;-0.65;22.84
43480;BME280;29067;35.492;-97.520;2023-03-19T02:52:14;98716.22;;;0.09;23.28
43480;BME280;29067;35.492;-97.520;2023-03-19T02:54:42;98716.41;;;-0.86;22.84
43480;BME280;29067;35.492;-97.520;2023-03-19T02:57:10;98721.99;;;-1.08;23.35
43480;BME280;29067;35.492;-97.520;2023-03-19T02:59:38;98719.48;;;0.25;22.98
43480;BME280;29067;35.492;-97.520;2023-03-19T03:02:06;98726.17;;;-0.47;23.56
43480;BME280;29067;35.492;-97.520;2023-03-19T03:04:34;98727.86;;;-0.81;24.06
43480;BME280;29067;35.492;-97.520;2023-03-19T03:07:03;98735.29;;;-0.41;23.63
43480;BME280;29067;35.492;-97.520;2023-03-19T03:09:31;98736.12;;;-0.32;23.16
43480;BME280;29067;35.492;-97.520;2023-03-19T03:12:00;98737.18;;;-0.28;23.88
43480;BME280;29067;35.492;-97.520;2023-03-19T03:14:28;98740.91;;;-0.68;23.07
43480;BME280;29067;35.492;-97.520;2023-03-19T03:16:56;98744.55;;;-0.26;23.26
43480;BME280;29067;35.492;-97.520;2023-03-19T03:19:24;98746.97;;;-0.84;23.47
43480;BME280;29067;35.492;-97.520;2023-03-19T03:21:52;98747.86;;;-1.97;24.03
43480;BME280;29067;35.492;-97.520;2023-03-19T03:24:20;98746.84;;;-0.72;23.12
43480;BME280;29067;35.492;-97.520;2023-03-19T03:26:48;98750.39;;;-0.75;23.59
43480;BME280;29067;35.492;-97.520;2023-03-19T03:29:17;98751.49;;;-1.79;24.21
43480;BME280;29067;35.492;-97.520;2023-03-19T03:31:45;98753.29;;;-0.72;24.36
43480;BME280;29067;35.492;-97.520;2023-03-19T03:34:14;98749.30;;;-1.52;24.55
43480;BME280;29067;35.492;-97.520;2023-03-19T03:36:42;98750.84;;;-0.91;25.23
43480;BME280;29067;35.492;-97.520;2023-03-19T03:39:10;98753.62;;;-1.04;24.85
43480;BME280;29067;35.492;-97.520;2023-03-19T03:41:38;98760.10;;;-1.32;25.20
43480;BME280;29067;35.492;-97.520;2023-03-19T03:44:06;98766.59;;;-1.60;24.56
43480;BME280;29067;35.492;-97.520;2023-03-19T03:46:34;98766.68;;;-0.99;25.19
43480;BME280;29067;35.492;-97.520;2023-03-19T03:49:03;98763.68;;;-1.46;24.64
43480;BME280;29067;35.492;-97.520;2023-03-19T03:51:31;98764.88;;;-1.57;25.63
43480;BME280;29067;35.492;-97.520;2023-03-19T03:53:59;98767.96;;;-2.33;25.99
43480;BME280;29067;35.492;-97.520;2023-03-19T03:56:27;98765.15;;;-2.05;25.67
43480;BME280;29067;35.492;-97.520;2023-03-19T03:58:55;98767.88;;;-1.95;26.01
43480;BME280;29067;35.492;-97.520;2023-03-19T04:01:23;98768.60;;;-1.93;25.94
43480;BME280;29067;35.492;-97.520;2023-03-19T04:03:52;98771.96;;;-1.72;25.73
43480;BME280;29067;35.492;-97.520;2023-03-19T04:06:21;98773.51;;;-2.40;26.21
43480;BME280;29067;35.492;-97.520;2023-03-19T04:08:50;98776.10;;;-2.42;26.98
43480;BME280;29067;35.492;-97.520;2023-03-19T04:11:18;98774.94;;;-1.32;26.35
43480;BME280;29067;35.492;-97.520;2023-03-19T04:13:46;98778.65;;;-1.83;26.64
43480;BME280;29067;35.492;-97.520;2023-03-19T04:16:14;98778.56;;;-1.93;26.62
43480;BME280;29067;35.492;-97.520;2023-03-19T04:18:42;98774.35;;;-0.92;27.05
43480;BME280;29067;35.492;-97.520;2023-03-19T04:21:11;98776.31;;;-1.23;26.79
43480;BME280;29067;35.492;-97.520;2023-03-19T04:23:39;98778.66;;;-0.12;25.95
43480;BME280;29067;35.492;-97.520;2023-03-19T04:26:07;98777.29;;;-1.87;26.33
43480;BME280;29067;35.492;-97.520;2023-03-19T04:28:35;98778.66;;;-2.42;25.43
43480;BME280;29067;35.492;-97.520;2023-03-19T04:31:05;98769.92;;;-1.02;26.41
43480;BME280;29067;35.492;-97.520;2023-03-19T04:33:33;98773.21;;;-0.63;26.52
43480;BME280;29067;35.492;-97.520;2023-03-19T04:36:01;98774.92;;;-2.45;25.67
43480;BME280;29067;35.492;-97.520;2023-03-19T04:38:29;98777.91;;;-2.55;25.63
43480;BME280;29067;35.492;-97.520;2023-03-19T04:40:57;98777.13;;;-1.92;25.30
43480;BME280;29067;35.492;-97.520;2023-03-19T04:43:26;98785.32;;;-1.24;26.17
43480;BME280;29067;35.492;-97.520;2023-03-19T04:45:54;98791.75;;;-2.13;26.27
43480;BME280;29067;35.492;-97.520;2023-03-19T04:48:22;98795.87;;;-2.08;26.71
43480;BME280;29067;35.492;-97.520;2023-03-19T04:50:50;98797.64;;;-2.73;26.52
43480;BME280;29067;35.492;-97.520;2023-03-19T04:53:18;98793.33;;;-2.87;26.64
43480;BME280;29067;35.492;-97.520;2023-03-19T04:55:46;98804.86;;;-2.55;26.24
43480;BME280;29067;35.492;-97.520;2023-03-19T04:58:15;98808.86;;;-2.63;26.47
43480;BME280;29067;35.492;-97.520;2023-03-19T05:00:43;98812.96;;;-2.48;26.48
43480;BME280;29067;35.492;-97.520;2023-03-19T05:03:11;98818.81;;;-1.90;26.63
43480;BME280;29067;35.492;-97.520;2023-03-19T05:05:39;98820.52;;;-2.66;26.73
43480;BME280;29067;35.492;-97.520;2023-03-19T05:08:08;98821.09;;;-1.95;26.26
43480;BME280;29067;35.492;-97.520;2023-03-19T05:10:37;98821.01;;;-1.40;25.93
43480;BME280;29067;35.492;-97.520;2023-03-19T05:13:06;98821.16;;;-1.33;25.81
43480;BME280;29067;35.492;-97.520;2023-03-19T05:15:34;98825.45;;;-2.18;27.24
43480;BME280;29067;35.492;-97.520;2023-03-19T05:18:02;98826.83;;;-1.69;27.41
43480;BME280;29067;35.492;-97.520;2023-03-19T05:20:30;98830.78;;;-2.25;26.50
43480;BME280;29067;35.492;-97.520;2023-03-19T05:22:58;98824.81;;;-2.15;27.45
43480;BME280;29067;35.492;-97.520;2023-03-19T05:25:26;98826.61;;;-2.40;26.95
43480;BME280;29067;35.492;-97.520;2023-03-19T05:27:54;98829.92;;;-1.74;26.58
43480;BME280;29067;35.492;-97.520;2023-03-19T05:30:23;98833.46;;;-1.67;26.32
43480;BME280;29067;35.492;-97.520;2023-03-19T05:32:51;98836.44;;;-1.98;26.30
43480;BME280;29067;35.492;-97.520;2023-03-19T05:35:19;98831.21;;;-0.67;27.02
43480;BME280;29067;35.492;-97.520;2023-03-19T05:37:47;98829.89;;;-0.61;26.94
43480;BME280;29067;35.492;-97.520;2023-03-19T05:40:16;98834.72;;;-1.12;26.92
43480;BME280;29067;35.492;-97.520;2023-03-19T05:42:44;98832.45;;;-1.80;26.95
43480;BME280;29067;35.492;-97.520;2023-03-19T05:45:12;98837.04;;;-0.96;26.92
43480;BME280;29067;35.492;-97.520;2023-03-19T05:47:40;98834.01;;;-0.42;26.38
43480;BME280;29067;35.492;-97.520;2023-03-19T05:50:09;98842.21;;;-2.25;27.91
43480;BME280;29067;35.492;-97.520;2023-03-19T05:52:37;98835.10;;;-0.59;27.37
43480;BME280;29067;35.492;-97.520;2023-03-19T05:55:06;98836.54;;;-1.45;27.22
43480;BME280;29067;35.492;-97.520;2023-03-19T05:57:35;98836.38;;;-1.64;27.80
43480;BME280;29067;35.492;-97.520;2023-03-19T06:00:04;98837.58;;;-1.96;27.72
43480;BME280;29067;35.492;-97.520;2023-03-19T06:02:33;98840.63;;;-2.92;27.98
43480;BME280;29067;35.492;-97.520;2023-03-19T06:05:01;98838.22;;;-2.82;28.34
43480;BME280;29067;35.492;-97.520;2023-03-19T06:07:29;98844.51;;;-3.93;28.79
43480;BME280;29067;35.492;-97.520;2023-03-19T06:09:57;98843.36;;;-3.49;29.19
43480;BME280;29067;35.492;-97.520;2023-03-19T06:12:26;98844.30;;;-2.78;28.88
43480;BME280;29067;35.492;-97.520;2023-03-19T06:14:53;98848.13;;;-3.76;29.00
43480;BME280;29067;35.492;-97.520;2023-03-19T06:17:22;98844.13;;;-2.38;28.27
43480;BME280;29067;35.492;-97.520;2023-03-19T06:19:50;98842.80;;;-2.60;28.81
43480;BME280;29067;35.492;-97.520;2023-03-19T06:22:18;98846.30;;;-3.08;28.55
43480;BME280;29067;35.492;-97.520;2023-03-19T06:24:46;98848.36;;;-2.29;29.05
43480;BME280;29067;35.492;-97.520;2023-03-19T06:27:14;98852.36;;;-2.78;29.00
43480;BME280;29067;35.492;-97.520;2023-03-19T06:29:43;98851.07;;;-2.39;27.92
43480;BME280;29067;35.492;-97.520;2023-03-19T06:32:11;98851.53;;;-2.24;27.94
43480;BME280;29067;35.492;-97.520;2023-03-19T06:34:39;98850.24;;;-2.49;27.60
43480;BME280;29067;35.492;-97.520;2023-03-19T06:37:07;98858.59;;;-2.77;28.12
43480;BME280;29067;35.492;-97.520;2023-03-19T06:39:35;98861.95;;;-2.21;28.30
43480;BME280;29067;35.492;-97.520;2023-03-19T06:42:04;98867.85;;;-2.48;28.37
43480;BME280;29067;35.492;-97.520;2023-03-19T06:44:32;98870.78;;;-2.75;28.31
43480;BME280;29067;35.492;-97.520;2023-03-19T06:47:00;98873.77;;;-2.70;28.40
43480;BME280;29067;35.492;-97.520;2023-03-19T06:49:28;98872.92;;;-2.43;28.29
43480;BME280;29067;35.492;-97.520;2023-03-19T06:51:57;98876.16;;;-1.58;27.35
43480;BME280;29067;35.492;-97.520;2023-03-19T06:54:25;98884.53;;;-2.96;30.07
43480;BME280;29067;35.492;-97.520;2023-03-19T06:56:53;98881.00;;;-1.63;28.86
43480;BME280;29067;35.492;-97.520;2023-03-19T06:59:21;98879.52;;;-1.92;28.28
43480;BME280;29067;35.492;-97.520;2023-03-19T07:01:49;98879.64;;;-2.06;27.89
43480;BME280;29067;35.492;-97.520;2023-03-19T07:04:18;98880.25;;;-2.12;29.01
43480;BME280;29067;35.492;-97.520;2023-03-19T07:06:46;98880.47;;;-2.35;29.21
43480;BME280;29067;35.492;-97.520;2023-03-19T07:09:14;98889.13;;;-3.36;29.66
43480;BME280;29067;35.492;-97.520;2023-03-19T07:11:42;98891.94;;;-3.96;29.40
43480;BME280;29067;35.492;-97.520;2023-03-19T07:14:11;98892.77;;;-2.85;29.67
43480;BME280;29067;35.492;-97.520;2023-03-19T07:16:39;98897.90;;;-3.33;29.20
43480;BME280;29067;35.492;-97.520;2023-03-19T07:19:07;98898.78;;;-2.71;29.34
43480;BME280;29067;35.492;-97.520;2023-03-19T07:21:35;98900.93;;;-3.18;29.29
43480;BME280;29067;35.492;-97.520;2023-03-19T07:24:04;98901.39;;;-3.16;28.10
43480;BME280;29067;35.492;-97.520;2023-03-19T07:26:32;98901.42;;;-3.74;29.23
43480;BME280;29067;35.492;-97.520;2023-03-19T07:29:00;98895.09;;;-2.79;29.57
43480;BME280;29067;35.492;-97.520;2023-03-19T07:31:28;98896.92;;;-3.06;28.33
43480;BME280;29067;35.492;-97.520;2023-03-19T07:33:56;98897.27;;;-2.61;28.38
43480;BME280;29067;35.492;-97.520;2023-03-19T07:36:25;98903.57;;;-3.71;29.16
43480;BME280;29067;35.492;-97.520;2023-03-19T07:38:53;98909.73;;;-4.03;29.70
43480;BME280;29067;35.492;-97.520;2023-03-19T07:41:21;98905.35;;;-1.93;28.95
43480;BME280;29067;35.492;-97.520;2023-03-19T07:43:49;98911.83;;;-2.28;28.86
43480;BME280;29067;35.492;-97.520;2023-03-19T07:46:17;98915.86;;;-4.23;29.56
43480;BME280;29067;35.492;-97.520;2023-03-19T07:48:46;98915.62;;;-3.75;29.38
43480;BME280;29067;35.492;-97.520;2023-03-19T07:51:14;98918.66;;;-3.88;29.96
43480;BME280;29067;35.492;-97.520;2023-03-19T07:53:42;98917.37;;;-3.36;29.44
43480;BME280;29067;35.492;-97.520;2023-03-19T07:56:11;98918.76;;;-3.85;30.07
43480;BME280;29067;35.492;-97.520;2023-03-19T07:58:39;98928.57;;;-4.73;30.23
43480;BME280;29067;35.492;-97.520;2023-03-19T08:01:07;98933.28;;;-5.53;31.47
43480;BME280;29067;35.492;-97.520;2023-03-19T08:03:35;98931.99;;;-4.52;30.97
43480;BME280;29067;35.492;-97.520;2023-03-19T08:06:04;98929.94;;;-2.80;29.43
43480;BME280;29067;35.492;-97.520;2023-03-19T08:08:32;98931.78;;;-2.76;28.68
43480;BME280;29067;35.492;-97.520;2023-03-19T08:11:00;98931.32;;;-2.27;28.45
43480;BME280;29067;35.492;-97.520;2023-03-19T08:13:28;98935.17;;;-2.88;28.68
43480;BME280;29067;35.492;-97.520;2023-03-19T08:15:57;98936.13;;;-2.88;28.65
43480;BME280;29067;35.492;-97.520;2023-03-19T08:18:26;98929.78;;;-2.57;28.65
43480;BME280;29067;35.492;-97.520;2023-03-19T08:20:54;98931.93;;;-2.87;29.40
43480;BME280;29067;35.492;-97.520;2023-03-19T08:23:22;98934.96;;;-3.01;29.68
43480;BME280;29067;35.492;-97.520;2023-03-19T08:25:50;98931.46;;;-2.39;29.89
43480;BME280;29067;35.492;-97.520;2023-03-19T08:28:19;98935.46;;;-3.45;30.11
43480;BME280;29067;35.492;-97.520;2023-03-19T08:30:47;98932.93;;;-2.64;29.35
43480;BME280;29067;35.492;-97.520;2023-03-19T08:33:15;98938.45;;;-3.43;29.85
43480;BME280;29067;35.492;-97.520;2023-03-19T08:35:43;98936.44;;;-2.64;29.42
43480;BME280;29067;35.492;-97.520;2023-03-19T08:38:11;98941.08;;;-3.70;29.71
43480;BME280;29067;35.492;-97.520;2023-03-19T08:40:40;98941.92;;;-3.51;30.32
43480;BME280;29067;35.492;-97.520;2023-03-19T08:43:08;98943.24;;;-4.52;30.82
43480;BME280;29067;35.492;-97.520;2023-03-19T08:45:36;98943.52;;;-2.71;28.70
43480;BME280;29067;35.492;-97.520;2023-03-19T08:48:05;98941.18;;;-2.61;29.31
43480;BME280;29067;35.492;-97.520;2023-03-19T08:50:33;98936.65;;;-2.19;29.04
43480;BME280;29067;35.492;-97.520;2023-03-19T08:53:01;98936.79;;;-2.40;29.26
43480;BME280;29067;35.492;-97.520;2023-03-19T08:55:29;98939.49;;;-3.52;29.76
43480;BME280;29067;35.492;-97.520;2023-03-19T08:57:58;98940.32;;;-2.98;29.53
43480;BME280;29067;35.492;-97.520;2023-03-19T09:00:26;98938.41;;;-2.64;29.60
43480;BME280;29067;35.492;-97.520;2023-03-19T09:02:54;98940.98;;;-3.64;30.03
43480;BME280;29067;35.492;-97.520;2023-03-19T09:05:22;98941.28;;;-3.34;30.25
43480;BME280;29067;35.492;-97.520;2023-03-19T09:07:51;98945.27;;;-3.94;30.11
43480;BME280;29067;35.492;-97.520;2023-03-19T09:10:19;98946.28;;;-3.94;29.77
43480;BME280;29067;35.492;-97.520;2023-03-19T09:12:47;98948.27;;;-4.66;30.47
43480;BME280;29067;35.492;-97.520;2023-03-19T09:15:15;98950.11;;;-5.19;31.86
43480;BME280;29067;35.492;-97.520;2023-03-19T09:17:45;98956.07;;;-6.13;32.13
43480;BME280;29067;35.492;-97.520;2023-03-19T09:20:13;98951.21;;;-4.85;32.07
43480;BME280;29067;35.492;-97.520;2023-03-19T09:22:41;98955.20;;;-6.04;32.32
43480;BME280;29067;35.492;-97.520;2023-03-19T09:25:10;98950.93;;;-4.44;31.51
43480;BME280;29067;35.492;-97.520;2023-03-19T09:27:39;98953.62;;;-5.33;32.26
43480;BME280;29067;35.492;-97.520;2023-03-19T09:30:08;98957.98;;;-5.91;32.19
43480;BME280;29067;35.492;-97.520;2023-03-19T09:32:36;98958.00;;;-3.76;32.61
43480;BME280;29067;35.492;-97.520;2023-03-19T09:35:05;98960.08;;;-5.60;33.89
43480;BME280;29067;35.492;-97.520;2023-03-19T09:37:34;98961.02;;;-4.17;33.04
43480;BME280;29067;35.492;-97.520;2023-03-19T09:40:02;98966.05;;;-6.06;33.90
43480;BME280;29067;35.492;-97.520;2023-03-19T09:42:42;98963.84;;;-4.15;32.81
43480;BME280;29067;35.492;-97.520;2023-03-19T09:45:14;98974.92;;;-6.34;34.69
43480;BME280;29067;35.492;-97.520;2023-03-19T09:47:45;98974.61;;;-5.46;34.89
43480;BME280;29067;35.492;-97.520;2023-03-19T09:50:17;98978.56;;;-6.58;34.57
43480;BME280;29067;35.492;-97.520;2023-03-19T09:52:48;98975.12;;;-5.33;33.88
43480;BME280;29067;35.492;-97.520;2023-03-19T09:55:27;98976.05;;;-3.57;32.34
43480;BME280;29067;35.492;-97.520;2023-03-19T09:57:58;98980.07;;;-3.46;33.12
43480;BME280;29067;35.492;-97.520;2023-03-19T10:00:29;98983.99;;;-4.82;33.25
43480;BME280;29067;35.492;-97.520;2023-03-19T10:03:05;98981.99;;;-3.53;32.55
43480;BME280;29067;35.492;-97.520;2023-03-19T10:05:44;98984.03;;;-3.16;32.32
43480;BME280;29067;35.492;-97.520;2023-03-19T10:08:36;98980.95;;;-4.02;32.54
43480;BME280;29067;35.492;-97.520;2023-03-19T10:11:19;98977.65;;;-3.55;32.60
43480;BME280;29067;35.492;-97.520;2023-03-19T10:13:58;98982.98;;;-2.42;31.53
43480;BME280;29067;35.492;-97.520;2023-03-19T10:16:29;98985.58;;;-4.51;33.07
43480;BME280;29067;35.492;-97.520;2023-03-19T10:18:59;98988.91;;;-4.54;33.13
43480;BME280;29067;35.492;-97.520;2023-03-19T10:21:32;98990.70;;;-4.32;32.97
43480;BME280;29067;35.492;-97.520;2023-03-19T10:24:05;98992.16;;;-4.34;33.15
43480;BME280;29067;35.492;-97.520;2023-03-19T10:26:36;98994.53;;;-5.83;34.43
43480;BME280;29067;35.492;-97.520;2023-03-19T10:29:07;98991.36;;;-4.05;32.83
43480;BME280;29067;35.492;-97.520;2023-03-19T10:31:43;98994.30;;;-6.23;34.50
43480;BME280;29067;35.492;-97.520;2023-03-19T10:34:27;98996.13;;;-5.65;34.41
43480;BME280;29067;35.492;-97.520;2023-03-19T10:36:59;99002.62;;;-6.35;35.39
43480;BME280;29067;35.492;-97.520;2023-03-19T10:39:27;99005.36;;;-6.53;36.07
43480;BME280;29067;35.492;-97.520;2023-03-19T10:42:12;99006.16;;;-7.06;35.82
43480;BME280;29067;35.492;-97.520;2023-03-19T10:44:49;98999.70;;;-4.90;33.68
43480;BME280;29067;35.492;-97.520;2023-03-19T10:47:18;99005.95;;;-6.05;35.11
43480;BME280;29067;35.492;-97.520;2023-03-19T10:49:46;99001.00;;;-5.14;34.59
43480;BME280;29067;35.492;-97.520;2023-03-19T10:52:21;99000.85;;;-3.94;33.75
43480;BME280;29067;35.492;-97.520;2023-03-19T10:54:55;99006.68;;;-5.11;34.57
43480;BME280;29067;35.492;-97.520;2023-03-19T10:57:26;99003.90;;;-4.52;34.10
43480;BME280;29067;35.492;-97.520;2023-03-19T10:59:54;99008.59;;;-5.59;34.50
43480;BME280;29067;35.492;-97.520;2023-03-19T11:02:24;99009.88;;;-6.15;34.97
43480;BME280;29067;35.492;-97.520;2023-03-19T11:05:06;99017.63;;;-6.74;35.99
43480;BME280;29067;35.492;-97.520;2023-03-19T11:07:35;99012.05;;;-5.75;35.65
43480;BME280;29067;35.492;-97.520;2023-03-19T11:10:04;99011.89;;;-4.76;34.38
43480;BME280;29067;35.492;-97.520;2023-03-19T11:12:34;99022.83;;;-7.43;36.34
43480;BME280;29067;35.492;-97.520;2023-03-19T11:15:03;99019.06;;;-5.30;35.47
43480;BME280;29067;35.492;-97.520;2023-03-19T11:17:45;99021.71;;;-5.05;35.09
43480;BME280;29067;35.492;-97.520;2023-03-19T11:20:25;99019.72;;;-5.04;34.80
43480;BME280;29067;35.492;-97.520;2023-03-19T11:22:56;99017.83;;;-4.89;34.62
43480;BME280;29067;35.492;-97.520;2023-03-19T11:25:26;99022.34;;;-6.22;36.26
43480;BME280;29067;35.492;-97.520;2023-03-19T11:27:59;99023.46;;;-5.05;35.14
43480;BME280;29067;35.492;-97.520;2023-03-19T11:30:37;99021.26;;;-3.97;34.38
43480;BME280;29067;35.492;-97.520;2023-03-19T11:33:45;99019.14;;;-4.56;34.35
43480;BME280;29067;35.492;-97.520;2023-03-19T11:36:21;99018.63;;;-5.26;34.25
43480;BME280;29067;35.492;-97.520;2023-03-19T11:39:20;99023.46;;;-6.40;35.50
43480;BME280;29067;35.492;-97.520;2023-03-19T11:42:05;99023.17;;;-5.70;35.10
43480;BME280;29067;35.492;-97.520;2023-03-19T11:44:46;99025.96;;;-6.65;36.54
43480;BME280;29067;35.492;-97.520;2023-03-19T11:47:26;99029.82;;;-7.71;36.97
43480;BME280;29067;35.492;-97.520;2023-03-19T11:50:07;99028.01;;;-5.75;35.84
43480;BME280;29067;35.492;-97.520;2023-03-19T11:52:44;99028.58;;;-5.94;35.92
43480;BME280;29067;35.492;-97.520;2023-03-19T11:55:23;99026.83;;;-5.83;36.10
43480;BME280;29067;35.492;-97.520;2023-03-19T11:58:07;99024.51;;;-4.17;34.56
43480;BME280;29067;35.492;-97.520;2023-03-19T12:03:53;99026.19;;;-4.66;34.30
43480;BME280;29067;35.492;-97.520;2023-03-19T12:06:35;99038.01;;;-7.47;36.60
43480;BME280;29067;35.492;-97.520;2023-03-19T12:09:12;99039.71;;;-7.25;36.54
43480;BME280;29067;35.492;-97.520;2023-03-19T12:11:47;99037.25;;;-5.60;35.28
43480;BME280;29067;35.492;-97.520;2023-03-19T12:14:34;99045.91;;;-7.63;37.40
43480;BME280;29067;35.492;-97.520;2023-03-19T12:17:20;99042.81;;;-6.27;36.60
43480;BME280;29067;35.492;-97.520;2023-03-19T12:20:02;99040.62;;;-4.92;35.54
43480;BME280;29067;35.492;-97.520;2023-03-19T12:22:43;99039.39;;;-4.71;34.73
43480;BME280;29067;35.492;-97.520;2023-03-19T12:25:31;99042.35;;;-4.80;34.94
43480;BME280;29067;35.492;-97.520;2023-03-19T12:28:09;99031.04;;;-3.88;33.77
43480;BME280;29067;35.492;-97.520;2023-03-19T12:30:43;99032.73;;;-4.71;34.29
43480;BME280;29067;35.492;-97.520;2023-03-19T12:33:28;99029.18;;;-3.21;33.41
43480;BME280;29067;35.492;-97.520;2023-03-19T12:36:06;99034.84;;;-5.01;34.33
43480;BME280;29067;35.492;-97.520;2023-03-19T12:38:38;99033.19;;;-3.90;33.53
43480;BME280;29067;35.492;-97.520;2023-03-19T12:41:09;99037.20;;;-4.19;34.24
43480;BME280;29067;35.492;-97.520;2023-03-19T12:43:47;99035.84;;;-4.98;34.68
43480;BME280;29067;35.492;-97.520;2023-03-19T12:46:24;99036.76;;;-5.57;34.77
43480;BME280;29067;35.492;-97.520;2023-03-19T12:48:56;99042.13;;;-5.92;35.90
43480;BME280;29067;35.492;-97.520;2023-03-19T12:51:28;99041.47;;;-5.81;35.35
43480;BME280;29067;35.492;-97.520;2023-03-19T12:54:00;99042.81;;;-5.04;34.98
43480;BME280;29067;35.492;-97.520;2023-03-19T12:56:34;99048.39;;;-4.56;34.60
43480;BME280;29067;35.492;-97.520;2023-03-19T12:59:10;99054.11;;;-6.35;35.56
43480;BME280;29067;35.492;-97.520;2023-03-19T13:01:45;99051.65;;;-3.86;34.38